CXB weather

Cox's Bazar Airport
Cox's Bazar, Chittagong Division, Bangladesh

Public forecast

Using degrees Celsius for public forecast. Weather courtesy of forecast.io.

METAR (pilot weather report)

Closest report is Shah Amanat International Airport, 48.6 nm (90.0 km) N. Retrieved 2019/09/23 02:00 UTC (27 minutes ago):

VGEG 230200Z 12004KT 5000 FEW018 SCT120 27/25 Q1013 NOSIG

TAF (pilot weather forecast)

Forecast is more than 12 hours old.

Closest forecast is Shah Amanat International Airport, 48.6 nm (90.0 km) N. Retrieved 2019/09/22 00:18 UTC (1 day ago):

TAF TAF VGEG 222300Z 2300/2406 10005KT 4000 HZ/DZ FEW018 SCT017 BECMG 2305/2307 20002KT 4000 HZ FEW018 BECMG 2311/2313 22005KT 3000 RA/TSRA SCT015 BECMG 2318/2320 13005KT 4000 HZ FEW018 BECMG 2403/2405 22005KT 4000 HZ FEW018